Current | Forecast
Updated: 9:30 AM MSK on May 25, 2017
Observed at Stavropol', Russia
Temperature 52°F
Humidity 88%
Dew Point 48°F
Wind East at 7 mph
Pressure 30.09 in (Steady)
Conditions Overcast
Visibility 6.2 miles
UV 2 out of 16
Clouds Mostly Cloudy (BKN) : 500 ft
Overcast (OVC) : 4800 ft
Yesterday's Maximum 54°F
Yesterday's Minimum 46°F approx.
Yesterday's Heating Degree Days 15 approx.
Sunrise4:29 AM MSK
Sunset7:42 PM MSK
Moon Rise4:30 AM MSK
Moon Set7:05 PM MSK
Moon PhaseMoon Phase
Waning Crescent
Raw METARMETAR URMT 250630Z 10003MPS 9999 BKN005 OVC048 11/09 Q1019 R07/290055 NOSIG RMK QFE724


Monday
. High: 71° F.
Tuesday
. High: 66° F.
Wednesday
. High: 59° F.
Thursday
. High: 62° F.
Friday
. High: 66° F.
Saturday
. High: 62° F.
Sunday
. High: 59° F.
Monday
. High: 66° F.

Units: English | Metric

Find the Weather for any City, State or Zipcode, or Country:

U.S. State List | Severe Weather | Tropical Storms | Ski Conditions
United States | Canada | Central America | South America | Asia | Europe | Australia | Africa | Islands

Weather Underground

© Copyright 2017
The Weather Company, LLC